createdAt,value
2016-09-03T00:00:18.511Z,959.18
2016-09-03T00:02:00.760Z,959.17
2016-09-03T00:02:27.923Z,959.16
2016-09-03T00:03:43.185Z,959.20
2016-09-03T00:04:27.827Z,959.17
2016-09-03T00:05:27.110Z,959.19
2016-09-03T00:06:25.906Z,959.13
2016-09-03T00:07:25.685Z,959.13
2016-09-03T00:08:22.759Z,959.10
2016-09-03T00:09:28.838Z,959.12
2016-09-03T00:10:27.769Z,959.13
2016-09-03T00:11:19.553Z,959.13
2016-09-03T00:12:33.150Z,959.13
2016-09-03T00:13:20.592Z,959.14
2016-09-03T00:14:21.201Z,959.12
2016-09-03T00:15:29.049Z,959.07
2016-09-03T00:16:22.496Z,959.06
2016-09-03T00:17:15.031Z,959.05
2016-09-03T00:18:23.205Z,959.07
2016-09-03T00:19:28.361Z,959.09
2016-09-03T00:20:20.834Z,959.07
2016-09-03T00:21:17.796Z,959.02
2016-09-03T00:22:33.672Z,959.05
2016-09-03T00:23:19.884Z,959.08
2016-09-03T00:24:23.438Z,959.07
2016-09-03T00:25:24.071Z,959.07
2016-09-03T00:26:32.396Z,959.06
2016-09-03T00:27:28.167Z,959.08
2016-09-03T00:28:29.154Z,959.02
2016-09-03T00:29:23.397Z,959.06
2016-09-03T00:30:26.159Z,959.03
2016-09-03T00:32:00.402Z,959.02
2016-09-03T00:32:27.912Z,959.01
2016-09-03T00:33:26.730Z,959.01
2016-09-03T00:34:28.427Z,959.01
2016-09-03T00:35:27.227Z,959.00
2016-09-03T00:36:26.435Z,959.00
2016-09-03T00:37:27.202Z,959.06
2016-09-03T00:38:23.192Z,959.03
2016-09-03T00:39:22.562Z,959.08
2016-09-03T00:40:22.767Z,959.05
2016-09-03T00:41:29.426Z,959.07
2016-09-03T00:42:27.910Z,959.06
2016-09-03T00:43:27.454Z,959.08
2016-09-03T00:44:25.446Z,959.07
2016-09-03T00:45:19.053Z,959.06
2016-09-03T00:46:13.864Z,959.05
2016-09-03T00:47:26.959Z,959.05
2016-09-03T00:48:19.750Z,959.04
2016-09-03T00:50:27.710Z,959.03
2016-09-03T00:51:22.832Z,959.02
2016-09-03T00:52:31.122Z,959.01
2016-09-03T00:53:22.861Z,959.03
2016-09-03T00:54:36.880Z,959.04
2016-09-03T00:55:28.957Z,959.04
2016-09-03T00:56:28.519Z,959.04
2016-09-03T00:57:19.420Z,959.03
2016-09-03T00:58:28.261Z,959.06
2016-09-03T00:59:27.635Z,959.08
2016-09-03T01:00:23.779Z,959.04
2016-09-03T01:01:24.819Z,959.07
2016-09-03T01:02:27.039Z,959.01
2016-09-03T01:03:23.544Z,959.01
2016-09-03T01:04:27.576Z,959.06
2016-09-03T01:05:28.552Z,959.08
2016-09-03T01:06:22.420Z,959.04
2016-09-03T01:07:24.609Z,959.03
2016-09-03T01:08:20.521Z,959.01
2016-09-03T01:09:27.501Z,959.03
2016-09-03T01:10:17.994Z,959.04
2016-09-03T01:11:19.632Z,959.03
2016-09-03T01:12:21.185Z,959.06
2016-09-03T01:13:18.336Z,959.05
2016-09-03T01:14:26.522Z,959.07
2016-09-03T01:15:24.368Z,959.05
2016-09-03T01:16:22.847Z,959.15
2016-09-03T01:17:26.509Z,959.11
2016-09-03T01:18:22.755Z,959.11
2016-09-03T01:19:18.809Z,959.11
2016-09-03T01:20:27.019Z,959.13
2016-09-03T01:21:28.183Z,959.10
2016-09-03T01:22:25.290Z,959.07
2016-09-03T01:23:29.285Z,959.05
2016-09-03T01:24:18.438Z,959.10
2016-09-03T01:25:25.807Z,959.10
2016-09-03T01:26:19.655Z,959.10
2016-09-03T01:27:33.081Z,959.01
2016-09-03T01:28:31.703Z,959.04
2016-09-03T01:29:27.765Z,959.00
2016-09-03T01:30:23.227Z,959.00
2016-09-03T01:31:19.108Z,959.01
2016-09-03T01:32:19.023Z,959.05
2016-09-03T01:33:32.133Z,959.04
2016-09-03T01:34:33.154Z,959.02
2016-09-03T01:35:19.157Z,959.03
2016-09-03T01:36:21.666Z,959.08
2016-09-03T01:37:19.016Z,958.97
2016-09-03T01:38:39.546Z,958.99
2016-09-03T01:39:28.447Z,958.97
2016-09-03T01:40:21.684Z,958.98
2016-09-03T01:41:27.444Z,959.00
2016-09-03T01:42:21.742Z,959.04
2016-09-03T01:43:32.687Z,958.98
2016-09-03T01:44:28.224Z,958.98
2016-09-03T01:45:22.540Z,959.02
2016-09-03T01:46:27.623Z,959.02
2016-09-03T01:47:24.320Z,959.06
2016-09-03T01:48:26.562Z,959.01
2016-09-03T01:49:31.949Z,959.03
2016-09-03T01:50:18.244Z,959.04
2016-09-03T01:52:00.367Z,959.03
2016-09-03T01:52:21.748Z,959.06
2016-09-03T01:53:18.586Z,959.03
2016-09-03T01:54:27.479Z,959.03
2016-09-03T01:55:22.414Z,959.01
2016-09-03T01:56:22.722Z,959.03
2016-09-03T01:57:26.842Z,959.02
2016-09-03T01:58:23.972Z,959.04
2016-09-03T01:59:27.805Z,959.01
2016-09-03T02:00:18.858Z,959.03
2016-09-03T02:01:22.955Z,959.02
2016-09-03T02:02:21.520Z,959.02
2016-09-03T02:03:25.139Z,958.98
2016-09-03T02:04:20.355Z,959.02
2016-09-03T02:05:28.071Z,959.00
2016-09-03T02:06:33.133Z,958.97
2016-09-03T02:07:27.322Z,959.00
2016-09-03T02:08:27.342Z,958.99
2016-09-03T02:09:27.974Z,959.01
2016-09-03T02:10:23.966Z,959.00
2016-09-03T02:11:19.888Z,959.02
2016-09-03T02:12:26.421Z,959.01
2016-09-03T02:13:22.968Z,959.00
2016-09-03T02:14:19.934Z,958.98
2016-09-03T02:15:21.161Z,958.99
2016-09-03T02:16:26.268Z,958.96
2016-09-03T02:17:27.763Z,958.97
2016-09-03T02:18:26.832Z,958.93
2016-09-03T02:19:18.418Z,958.89
2016-09-03T02:20:26.645Z,958.91
2016-09-03T02:21:22.754Z,958.87
2016-09-03T02:22:27.844Z,958.88
2016-09-03T02:23:32.239Z,958.87
2016-09-03T02:24:18.719Z,958.85
2016-09-03T02:25:26.988Z,958.87
2016-09-03T02:26:33.652Z,958.91
2016-09-03T02:27:23.177Z,958.91
2016-09-03T02:28:33.127Z,958.91
2016-09-03T02:29:28.987Z,958.93
2016-09-03T02:30:18.713Z,958.93
2016-09-03T02:31:23.386Z,958.93
2016-09-03T02:32:26.487Z,958.91
2016-09-03T02:33:23.322Z,958.90
2016-09-03T02:34:20.040Z,958.86
2016-09-03T02:35:21.612Z,958.90
2016-09-03T02:36:32.434Z,958.88
2016-09-03T02:37:27.580Z,958.90
2016-09-03T02:38:25.753Z,958.90
2016-09-03T02:39:19.802Z,958.88
2016-09-03T02:40:34.096Z,958.90
2016-09-03T02:41:58.907Z,958.85
2016-09-03T02:42:20.597Z,958.92
2016-09-03T02:43:27.824Z,958.84
2016-09-03T02:44:28.136Z,958.85
2016-09-03T02:45:26.854Z,958.84
2016-09-03T02:46:26.934Z,958.84
2016-09-03T02:47:21.657Z,958.87
2016-09-03T02:48:32.240Z,958.90
2016-09-03T02:49:22.477Z,958.90
2016-09-03T02:50:24.664Z,958.86
2016-09-03T02:51:44.421Z,958.84
2016-09-03T02:52:18.442Z,958.83
2016-09-03T02:53:26.962Z,958.83
2016-09-03T02:54:32.548Z,958.84
2016-09-03T02:55:23.696Z,958.79
2016-09-03T02:56:22.764Z,958.82
2016-09-03T02:57:26.422Z,958.80
2016-09-03T02:58:22.518Z,958.79
2016-09-03T02:59:22.325Z,958.79
2016-09-03T03:00:23.152Z,958.82
2016-09-03T03:01:27.277Z,958.79
2016-09-03T03:02:22.040Z,958.78
2016-09-03T03:03:28.138Z,958.88
2016-09-03T03:04:28.126Z,958.86
2016-09-03T03:05:28.183Z,958.87
2016-09-03T03:06:25.955Z,958.88
2016-09-03T03:07:22.589Z,958.86
2016-09-03T03:08:28.086Z,958.83
2016-09-03T03:09:23.011Z,958.89
2016-09-03T03:10:34.241Z,958.93
2016-09-03T03:11:22.673Z,958.90
2016-09-03T03:12:22.749Z,958.86
2016-09-03T03:13:23.579Z,958.93
2016-09-03T03:14:32.987Z,958.90
2016-09-03T03:15:18.729Z,958.95
2016-09-03T03:16:28.405Z,958.94
2016-09-03T03:17:23.605Z,958.90
2016-09-03T03:18:22.256Z,958.90
2016-09-03T03:19:22.868Z,958.90
2016-09-03T03:20:24.175Z,958.95
2016-09-03T03:21:19.001Z,958.91
2016-09-03T03:22:25.234Z,958.96
2016-09-03T03:23:32.551Z,958.96
2016-09-03T03:24:33.297Z,958.94
2016-09-03T03:25:18.228Z,958.95
2016-09-03T03:26:27.659Z,958.99
2016-09-03T03:27:28.290Z,958.97
2016-09-03T03:28:22.331Z,958.98
2016-09-03T03:29:23.436Z,958.99
2016-09-03T03:30:27.876Z,958.96
2016-09-03T03:31:24.885Z,958.97
2016-09-03T03:32:20.170Z,958.97
2016-09-03T03:33:14.859Z,958.96
2016-09-03T03:34:28.528Z,958.98
2016-09-03T03:35:28.737Z,958.98
2016-09-03T03:36:28.442Z,958.99
2016-09-03T03:37:28.981Z,958.97
2016-09-03T03:38:27.046Z,958.98
2016-09-03T03:39:33.577Z,958.97
2016-09-03T03:40:28.164Z,958.96
2016-09-03T03:41:23.461Z,958.97
2016-09-03T03:42:13.389Z,958.95
2016-09-03T03:43:24.005Z,958.97
2016-09-03T03:44:22.985Z,958.94
2016-09-03T03:45:28.501Z,958.94
2016-09-03T03:46:21.778Z,958.94
2016-09-03T03:47:21.269Z,958.93
2016-09-03T03:48:28.883Z,958.91
2016-09-03T03:49:28.600Z,958.91
2016-09-03T03:50:27.709Z,958.93
2016-09-03T03:51:26.835Z,958.90
2016-09-03T03:52:28.807Z,958.89
2016-09-03T03:53:33.394Z,958.88
2016-09-03T03:54:19.873Z,958.90
2016-09-03T03:55:28.484Z,958.87
2016-09-03T03:56:22.747Z,958.90
2016-09-03T03:57:27.840Z,958.89
2016-09-03T03:58:22.405Z,958.88
2016-09-03T03:59:22.883Z,958.93
2016-09-03T04:00:23.041Z,958.91
2016-09-03T04:01:23.624Z,958.91
2016-09-03T04:02:25.845Z,958.90
2016-09-03T04:03:24.993Z,958.87
2016-09-03T04:04:23.240Z,958.88
2016-09-03T04:05:33.530Z,958.86
2016-09-03T04:06:19.399Z,958.88
2016-09-03T04:07:18.478Z,958.86
2016-09-03T04:08:16.757Z,958.88
2016-09-03T04:09:27.943Z,958.89
2016-09-03T04:10:34.501Z,958.88
2016-09-03T04:11:20.294Z,958.91
2016-09-03T04:12:25.831Z,958.94
2016-09-03T04:13:28.092Z,958.90
2016-09-03T04:14:12.054Z,958.90
2016-09-03T04:15:18.497Z,958.90
2016-09-03T04:16:20.075Z,958.94
2016-09-03T04:17:32.927Z,958.91
2016-09-03T04:18:21.158Z,958.94
2016-09-03T04:19:23.134Z,958.92
2016-09-03T04:20:23.723Z,958.95
2016-09-03T04:21:26.368Z,958.94
2016-09-03T04:22:28.314Z,958.97
2016-09-03T04:23:17.826Z,958.95
2016-09-03T04:24:29.024Z,958.92
2016-09-03T04:25:18.627Z,958.94
2016-09-03T04:26:17.464Z,958.93
2016-09-03T04:27:22.041Z,958.93
2016-09-03T04:28:19.487Z,958.92
2016-09-03T04:29:29.170Z,958.93
2016-09-03T04:30:24.395Z,958.97
2016-09-03T04:31:22.181Z,958.97
2016-09-03T04:32:27.061Z,958.95
2016-09-03T04:33:22.786Z,958.95
2016-09-03T04:34:19.415Z,959.00
2016-09-03T04:35:19.557Z,958.99
2016-09-03T04:36:27.760Z,958.99
2016-09-03T04:37:25.073Z,959.01
2016-09-03T04:38:19.910Z,959.00
2016-09-03T04:39:34.914Z,958.95
2016-09-03T04:40:27.856Z,958.98
2016-09-03T04:41:28.817Z,959.00
2016-09-03T04:42:23.553Z,959.01
2016-09-03T04:43:27.362Z,958.98
2016-09-03T04:44:24.993Z,958.94
2016-09-03T04:45:23.312Z,958.99
2016-09-03T04:46:19.391Z,958.97
2016-09-03T04:48:22.389Z,958.97
2016-09-03T04:49:24.485Z,958.97
2016-09-03T04:50:18.943Z,958.95
2016-09-03T04:51:20.455Z,958.99
2016-09-03T04:52:23.333Z,959.04
2016-09-03T04:53:20.070Z,959.03
2016-09-03T04:54:18.412Z,959.06
2016-09-03T04:55:24.017Z,959.02
2016-09-03T04:56:28.179Z,959.02
2016-09-03T04:57:26.733Z,959.02
2016-09-03T04:58:25.205Z,959.01
2016-09-03T04:59:28.254Z,958.98
2016-09-03T05:00:33.200Z,958.99
2016-09-03T05:01:18.057Z,959.00
2016-09-03T05:02:26.182Z,959.02
2016-09-03T05:03:19.248Z,958.98
2016-09-03T05:04:22.837Z,959.02
2016-09-03T05:05:27.223Z,959.02
2016-09-03T05:06:24.276Z,959.03
2016-09-03T05:07:19.074Z,959.04
2016-09-03T05:08:27.492Z,959.03
2016-09-03T05:09:28.943Z,959.04
2016-09-03T05:10:25.491Z,959.05
2016-09-03T05:11:28.672Z,959.05
2016-09-03T05:12:27.229Z,959.06
2016-09-03T05:13:22.338Z,959.06
2016-09-03T05:14:19.573Z,959.07
2016-09-03T05:15:27.284Z,959.05
2016-09-03T05:16:26.290Z,959.07
2016-09-03T05:17:27.684Z,959.08
2016-09-03T05:18:27.842Z,959.06
2016-09-03T05:19:21.160Z,959.10
2016-09-03T05:20:27.669Z,959.06
2016-09-03T05:21:53.395Z,959.10
2016-09-03T05:22:28.085Z,959.09
2016-09-03T05:23:21.854Z,959.08
2016-09-03T05:24:29.424Z,959.09
2016-09-03T05:25:22.493Z,959.06
2016-09-03T05:26:19.488Z,959.07
2016-09-03T05:27:26.823Z,959.02
2016-09-03T05:28:25.937Z,959.08
2016-09-03T05:29:19.493Z,959.02
2016-09-03T05:30:23.482Z,959.06
2016-09-03T05:31:19.029Z,959.06
2016-09-03T05:32:29.695Z,959.04
2016-09-03T05:33:26.678Z,959.09
2016-09-03T05:34:28.123Z,959.10
2016-09-03T05:35:32.801Z,959.12
2016-09-03T05:36:21.414Z,959.10
2016-09-03T05:37:15.990Z,959.10
2016-09-03T05:38:27.309Z,959.08
2016-09-03T05:39:33.157Z,959.13
2016-09-03T05:40:31.905Z,959.13
2016-09-03T05:41:25.800Z,959.13
2016-09-03T05:42:26.696Z,959.13
2016-09-03T05:43:19.690Z,959.12
2016-09-03T05:44:26.757Z,959.12
2016-09-03T05:45:26.152Z,959.14
2016-09-03T05:46:22.945Z,959.10
2016-09-03T05:47:19.987Z,959.10
2016-09-03T05:48:28.534Z,959.11
2016-09-03T05:49:28.004Z,959.12
2016-09-03T05:50:28.080Z,959.16
2016-09-03T05:51:17.856Z,959.13
2016-09-03T05:52:28.631Z,959.11
2016-09-03T05:53:22.199Z,959.09
2016-09-03T05:54:19.319Z,959.10
2016-09-03T05:55:17.783Z,959.11
2016-09-03T05:56:21.643Z,959.11
2016-09-03T05:57:18.220Z,959.12
2016-09-03T05:58:25.334Z,959.11
2016-09-03T05:59:18.790Z,959.11
2016-09-03T06:00:33.199Z,959.14
2016-09-03T06:01:19.124Z,959.16
2016-09-03T06:02:27.717Z,959.15
2016-09-03T06:03:17.752Z,959.15
2016-09-03T06:04:19.001Z,959.20
2016-09-03T06:05:29.823Z,959.19
2016-09-03T06:06:22.608Z,959.21
2016-09-03T06:07:17.694Z,959.19
2016-09-03T06:08:28.154Z,959.15
2016-09-03T06:09:33.918Z,959.20
2016-09-03T06:10:28.497Z,959.19
2016-09-03T06:11:55.050Z,959.21
2016-09-03T06:12:22.443Z,959.24
2016-09-03T06:13:27.593Z,959.18
2016-09-03T06:14:18.520Z,959.22
2016-09-03T06:15:23.195Z,959.20
2016-09-03T06:16:18.537Z,959.17
2016-09-03T06:17:22.425Z,959.13
2016-09-03T06:18:27.418Z,959.19
2016-09-03T06:19:28.168Z,959.17
2016-09-03T06:20:23.852Z,959.18
2016-09-03T06:21:27.897Z,959.19
2016-09-03T06:22:28.481Z,959.12
2016-09-03T06:24:27.836Z,959.15
2016-09-03T06:25:25.354Z,959.17
2016-09-03T06:26:27.524Z,959.15
2016-09-03T06:27:21.122Z,959.11
2016-09-03T06:28:17.298Z,959.17
2016-09-03T06:29:18.646Z,959.20
2016-09-03T06:30:32.964Z,959.21
2016-09-03T06:31:27.898Z,959.23
2016-09-03T06:32:28.602Z,959.29
2016-09-03T06:33:17.032Z,959.27
2016-09-03T06:34:34.383Z,959.32
2016-09-03T06:35:24.274Z,959.28
2016-09-03T06:36:27.091Z,959.32
2016-09-03T06:37:33.170Z,959.31
2016-09-03T06:38:24.484Z,959.35
2016-09-03T06:39:34.602Z,959.32
2016-09-03T06:40:19.810Z,959.31
2016-09-03T06:42:29.182Z,959.35
2016-09-03T06:43:26.271Z,959.40
2016-09-03T06:44:18.049Z,959.43
2016-09-03T06:45:25.714Z,959.44
2016-09-03T06:46:28.007Z,959.44
2016-09-03T06:47:17.270Z,959.45
2016-09-03T06:48:17.641Z,959.45
2016-09-03T06:49:27.441Z,959.44
2016-09-03T06:50:26.700Z,959.39
2016-09-03T06:51:12.780Z,959.43
2016-09-03T06:52:12.737Z,959.48
2016-09-03T06:53:21.805Z,959.49
2016-09-03T06:54:28.189Z,959.50
2016-09-03T06:55:19.229Z,959.48
2016-09-03T06:56:27.907Z,959.48
2016-09-03T06:57:26.457Z,959.50
2016-09-03T06:58:18.005Z,959.48
2016-09-03T06:59:18.483Z,959.49
2016-09-03T07:00:18.053Z,959.47
2016-09-03T07:01:17.431Z,959.44
2016-09-03T07:02:22.242Z,959.53
2016-09-03T07:03:11.923Z,959.54
2016-09-03T07:04:17.467Z,959.50
2016-09-03T07:05:18.510Z,959.51
2016-09-03T07:06:23.249Z,959.49
2016-09-03T07:07:15.743Z,959.52
2016-09-03T07:08:16.764Z,959.51
2016-09-03T07:09:22.785Z,959.51
2016-09-03T07:10:23.204Z,959.52
2016-09-03T07:11:17.166Z,959.54
2016-09-03T07:12:28.127Z,959.53
2016-09-03T07:13:18.266Z,959.51
2016-09-03T07:14:17.680Z,959.56
2016-09-03T07:15:18.263Z,959.55
2016-09-03T07:16:32.768Z,959.60
2016-09-03T07:18:18.396Z,959.60
2016-09-03T07:19:34.922Z,959.61
2016-09-03T07:20:26.806Z,959.57
2016-09-03T07:21:37.332Z,959.59
2016-09-03T07:24:06.850Z,959.64
2016-09-03T07:24:17.730Z,959.69
2016-09-03T07:25:18.137Z,959.68
2016-09-03T07:26:18.608Z,959.69
2016-09-03T07:27:20.135Z,959.71
2016-09-03T07:28:21.821Z,959.72
2016-09-03T07:29:18.232Z,959.75
2016-09-03T07:30:17.695Z,959.72
2016-09-03T07:31:24.274Z,959.75
2016-09-03T07:32:17.517Z,959.75
2016-09-03T07:33:24.245Z,959.76
2016-09-03T07:34:26.352Z,959.78
2016-09-03T07:35:25.877Z,959.79
2016-09-03T07:36:33.306Z,959.76
2016-09-03T07:37:29.248Z,959.76
2016-09-03T07:38:13.086Z,959.78
2016-09-03T07:39:18.579Z,959.79
2016-09-03T07:40:18.429Z,959.79
2016-09-03T07:41:17.359Z,959.74
2016-09-03T07:42:18.814Z,959.76
2016-09-03T07:43:19.254Z,959.80
2016-09-03T07:44:18.839Z,959.77
2016-09-03T07:45:23.480Z,959.80
2016-09-03T07:46:15.946Z,959.76
2016-09-03T07:47:17.620Z,959.77
2016-09-03T07:48:20.014Z,959.75
2016-09-03T07:49:17.396Z,959.79
2016-09-03T07:50:17.614Z,959.80
2016-09-03T07:51:28.253Z,959.83
2016-09-03T07:52:33.165Z,959.82
2016-09-03T07:53:18.128Z,959.84
2016-09-03T07:54:19.051Z,959.83
2016-09-03T07:55:17.585Z,959.82
2016-09-03T07:56:18.128Z,959.80
2016-09-03T07:57:22.648Z,959.82
2016-09-03T07:58:22.353Z,959.81
2016-09-03T07:59:19.307Z,959.82
2016-09-03T08:00:33.327Z,959.81
2016-09-03T08:01:17.929Z,959.80
2016-09-03T08:02:20.954Z,959.80
2016-09-03T08:03:19.019Z,959.80
2016-09-03T08:04:26.655Z,959.82
2016-09-03T08:05:17.615Z,959.82
2016-09-03T08:06:27.856Z,959.79
2016-09-03T08:07:27.681Z,959.80
2016-09-03T08:08:24.577Z,959.81
2016-09-03T08:09:19.035Z,959.81
2016-09-03T08:10:23.360Z,959.76
2016-09-03T08:11:16.979Z,959.74
2016-09-03T08:12:29.066Z,959.81
2016-09-03T08:14:19.073Z,959.78
2016-09-03T08:15:17.681Z,959.78
2016-09-03T08:16:26.561Z,959.77
2016-09-03T08:17:23.444Z,959.74
2016-09-03T08:18:26.732Z,959.74
2016-09-03T08:19:17.465Z,959.76
2016-09-03T08:20:28.750Z,959.73
2016-09-03T08:21:23.422Z,959.74
2016-09-03T08:22:20.957Z,959.69
2016-09-03T08:23:17.464Z,959.74
2016-09-03T08:24:23.331Z,959.72
2016-09-03T08:25:27.031Z,959.79
2016-09-03T08:26:28.354Z,959.73
2016-09-03T08:27:22.829Z,959.76
2016-09-03T08:28:29.939Z,959.79
2016-09-03T08:29:28.065Z,959.81
2016-09-03T08:30:28.201Z,959.79
2016-09-03T08:31:22.923Z,959.78
2016-09-03T08:32:29.789Z,959.81
2016-09-03T08:33:27.404Z,959.83
2016-09-03T08:34:28.301Z,959.78
2016-09-03T08:35:27.945Z,959.80
2016-09-03T08:36:17.917Z,959.82
2016-09-03T08:37:29.273Z,959.81
2016-09-03T08:38:31.177Z,959.81
2016-09-03T08:39:23.430Z,959.80
2016-09-03T08:40:24.400Z,959.86
2016-09-03T08:41:18.782Z,959.86
2016-09-03T08:42:18.248Z,959.93
2016-09-03T08:43:17.993Z,959.95
2016-09-03T08:44:23.131Z,959.96
2016-09-03T08:45:19.144Z,959.91
2016-09-03T08:46:23.738Z,959.90
2016-09-03T08:47:27.499Z,959.91
2016-09-03T08:48:26.738Z,959.85
2016-09-03T08:49:21.164Z,959.90
2016-09-03T08:50:17.464Z,959.90
2016-09-03T08:51:34.265Z,959.89
2016-09-03T08:52:22.740Z,959.90
2016-09-03T08:53:26.785Z,959.91
2016-09-03T08:54:28.289Z,959.92
2016-09-03T08:55:17.842Z,959.86
2016-09-03T08:56:19.729Z,959.88
2016-09-03T08:57:23.892Z,959.92
2016-09-03T08:58:22.603Z,959.88
2016-09-03T08:59:12.541Z,959.92
2016-09-03T09:00:35.281Z,959.90
2016-09-03T09:01:17.563Z,959.91
2016-09-03T09:02:27.867Z,959.91
2016-09-03T09:03:17.687Z,959.92
2016-09-03T09:04:23.554Z,959.93
2016-09-03T09:05:19.950Z,959.91
2016-09-03T09:06:22.978Z,959.90
2016-09-03T09:07:37.915Z,959.95
2016-09-03T09:08:27.849Z,959.97
2016-09-03T09:09:27.905Z,960.00
2016-09-03T09:10:34.395Z,959.97
2016-09-03T09:11:25.162Z,960.00
2016-09-03T09:12:18.995Z,959.98
2016-09-03T09:13:23.762Z,960.00
2016-09-03T09:14:17.973Z,959.95
2016-09-03T09:15:29.155Z,959.95
2016-09-03T09:16:28.198Z,959.99
2016-09-03T09:17:27.377Z,959.97
2016-09-03T09:18:27.359Z,959.98
2016-09-03T09:19:17.441Z,959.99
2016-09-03T09:20:21.984Z,959.97
2016-09-03T09:21:22.822Z,959.99
2016-09-03T09:22:23.435Z,959.95
2016-09-03T09:23:23.284Z,960.00
2016-09-03T09:24:33.721Z,959.97
2016-09-03T09:25:18.429Z,960.01
2016-09-03T09:26:26.483Z,960.03
2016-09-03T09:27:26.855Z,959.98
2016-09-03T09:28:38.177Z,960.00
2016-09-03T09:29:16.175Z,959.98
2016-09-03T09:30:32.933Z,960.01
2016-09-03T09:31:23.519Z,959.99
2016-09-03T09:32:32.244Z,960.03
2016-09-03T09:33:22.896Z,960.02
2016-09-03T09:34:32.774Z,959.99
2016-09-03T09:35:23.091Z,960.01
2016-09-03T09:36:18.723Z,960.02
2016-09-03T09:37:22.678Z,960.04
2016-09-03T09:38:22.736Z,960.02
2016-09-03T09:39:33.598Z,960.04
2016-09-03T09:40:26.887Z,960.03
2016-09-03T09:41:23.569Z,959.99
2016-09-03T09:42:20.495Z,959.99
2016-09-03T09:43:27.781Z,960.00
2016-09-03T09:44:18.978Z,959.96
2016-09-03T09:45:21.853Z,959.95
2016-09-03T09:46:17.937Z,959.89
2016-09-03T09:47:17.163Z,959.90
2016-09-03T09:48:32.578Z,959.91
2016-09-03T09:49:23.030Z,959.91
2016-09-03T09:50:29.250Z,959.89
2016-09-03T09:51:25.307Z,959.83
2016-09-03T09:52:18.461Z,959.83
2016-09-03T09:53:28.585Z,959.81
2016-09-03T09:54:27.041Z,959.88
2016-09-03T09:55:18.578Z,959.87
2016-09-03T09:56:26.569Z,959.80
2016-09-03T09:57:19.455Z,959.78
2016-09-03T09:58:22.993Z,959.80
2016-09-03T09:59:18.190Z,959.80
2016-09-03T10:00:18.032Z,959.81
2016-09-03T10:01:24.427Z,959.81
2016-09-03T10:02:28.630Z,959.84
2016-09-03T10:03:17.528Z,959.82
2016-09-03T10:04:27.903Z,959.83
2016-09-03T10:06:38.053Z,959.86
2016-09-03T10:07:17.485Z,959.83
2016-09-03T10:08:26.655Z,959.80
2016-09-03T10:09:22.907Z,959.78
2016-09-03T10:10:20.289Z,959.81
2016-09-03T10:11:17.300Z,959.78
2016-09-03T10:12:20.000Z,959.80
2016-09-03T10:13:18.128Z,959.76
2016-09-03T10:14:28.368Z,959.72
2016-09-03T10:15:17.412Z,959.72
2016-09-03T10:16:18.144Z,959.75
2016-09-03T10:17:23.554Z,959.74
2016-09-03T10:18:19.084Z,959.76
2016-09-03T10:19:17.738Z,959.79
2016-09-03T10:20:22.455Z,959.76
2016-09-03T10:21:19.219Z,959.79
2016-09-03T10:22:39.251Z,959.72
2016-09-03T10:23:27.207Z,959.71
2016-09-03T10:24:22.860Z,959.73
2016-09-03T10:25:18.745Z,959.69
2016-09-03T10:26:20.522Z,959.68
2016-09-03T10:27:22.582Z,959.66
2016-09-03T10:28:29.246Z,959.63
2016-09-03T10:29:28.853Z,959.64
2016-09-03T10:30:21.049Z,959.67
2016-09-03T10:31:17.714Z,959.65
2016-09-03T10:32:17.682Z,959.65
2016-09-03T10:33:17.644Z,959.67
2016-09-03T10:35:19.433Z,959.64
2016-09-03T10:36:22.905Z,959.61
2016-09-03T10:37:20.693Z,959.62
2016-09-03T10:38:28.244Z,959.58
2016-09-03T10:39:17.264Z,959.60
2016-09-03T10:40:17.845Z,959.61
2016-09-03T10:41:26.549Z,959.60
2016-09-03T10:42:24.636Z,959.60
2016-09-03T10:43:23.870Z,959.61
2016-09-03T10:45:18.982Z,959.60
2016-09-03T10:46:19.445Z,959.60
2016-09-03T10:47:29.207Z,959.60
2016-09-03T10:48:14.527Z,959.58
2016-09-03T10:49:17.140Z,959.57
2016-09-03T10:51:30.902Z,959.59
2016-09-03T10:52:12.213Z,959.55
2016-09-03T10:53:10.266Z,959.62
2016-09-03T10:54:12.908Z,959.59
2016-09-03T10:55:20.496Z,959.57
2016-09-03T10:56:20.192Z,959.54
2016-09-03T10:57:26.625Z,959.55
2016-09-03T10:58:22.975Z,959.55
2016-09-03T10:59:27.508Z,959.59
2016-09-03T11:00:16.070Z,959.59
2016-09-03T11:01:18.537Z,959.57
2016-09-03T11:02:18.286Z,959.57
2016-09-03T11:03:22.787Z,959.54
2016-09-03T11:04:22.356Z,959.58
2016-09-03T11:05:18.499Z,959.53
2016-09-03T11:06:28.175Z,959.56
2016-09-03T11:07:17.955Z,959.54
2016-09-03T11:09:19.229Z,959.55
2016-09-03T11:10:16.321Z,959.54
2016-09-03T11:11:19.304Z,959.52
2016-09-03T11:12:18.484Z,959.60
2016-09-03T11:13:19.159Z,959.58
2016-09-03T11:14:22.476Z,959.59
2016-09-03T11:15:17.803Z,959.58
2016-09-03T11:16:26.034Z,959.60
2016-09-03T11:17:17.014Z,959.55
2016-09-03T11:18:23.317Z,959.60
2016-09-03T11:19:17.157Z,959.55
2016-09-03T11:20:17.220Z,959.53
2016-09-03T11:21:19.483Z,959.57
2016-09-03T11:22:18.305Z,959.50
2016-09-03T11:23:33.156Z,959.51
2016-09-03T11:24:25.952Z,959.48
2016-09-03T11:25:23.912Z,959.47
2016-09-03T11:26:27.027Z,959.44
2016-09-03T11:27:21.361Z,959.47
2016-09-03T11:28:19.764Z,959.48
2016-09-03T11:29:28.573Z,959.44
2016-09-03T11:30:28.923Z,959.42
2016-09-03T11:31:17.098Z,959.46
2016-09-03T11:33:24.190Z,959.40
2016-09-03T11:34:26.960Z,959.38
2016-09-03T11:35:18.492Z,959.40
2016-09-03T11:36:18.560Z,959.36
2016-09-03T11:37:18.667Z,959.38
2016-09-03T11:38:18.458Z,959.35
2016-09-03T11:39:18.175Z,959.33
2016-09-03T11:40:18.428Z,959.35
2016-09-03T11:41:19.451Z,959.34
2016-09-03T11:42:18.258Z,959.31
2016-09-03T11:44:19.215Z,959.32
2016-09-03T11:45:21.146Z,959.34
2016-09-03T11:46:17.930Z,959.32
2016-09-03T11:47:27.157Z,959.32
2016-09-03T11:48:19.326Z,959.30
2016-09-03T11:49:20.476Z,959.32
2016-09-03T11:50:27.608Z,959.28
2016-09-03T11:51:26.781Z,959.30
2016-09-03T11:52:17.549Z,959.29
2016-09-03T11:53:28.716Z,959.27
2016-09-03T11:54:17.985Z,959.25
2016-09-03T11:55:21.946Z,959.26
2016-09-03T11:56:15.383Z,959.27
2016-09-03T11:57:19.439Z,959.25
2016-09-03T11:58:19.502Z,959.24
2016-09-03T11:59:28.363Z,959.25
2016-09-03T12:00:26.608Z,959.25
2016-09-03T12:01:20.879Z,959.22
2016-09-03T12:02:33.424Z,959.17
2016-09-03T12:03:29.874Z,959.21
2016-09-03T12:04:23.582Z,959.19
2016-09-03T12:06:18.418Z,959.17
2016-09-03T12:07:27.887Z,959.18
2016-09-03T12:08:23.307Z,959.22
2016-09-03T12:09:18.213Z,959.19
2016-09-03T12:10:27.171Z,959.15
2016-09-03T12:11:26.253Z,959.19
2016-09-03T12:12:21.243Z,959.15
2016-09-03T12:13:20.256Z,959.13
2016-09-03T12:14:25.611Z,959.14
2016-09-03T12:15:25.281Z,959.15
2016-09-03T12:16:25.403Z,959.14
2016-09-03T12:17:19.308Z,959.12
2016-09-03T12:18:27.918Z,959.16
2016-09-03T12:19:19.164Z,959.13
2016-09-03T12:20:29.227Z,959.09
2016-09-03T12:23:21.702Z,959.10
2016-09-03T12:24:28.173Z,959.10
2016-09-03T12:25:26.902Z,959.10
2016-09-03T12:26:26.426Z,959.10
2016-09-03T12:27:26.645Z,959.03
2016-09-03T12:28:19.827Z,959.07
2016-09-03T12:29:27.330Z,959.04
2016-09-03T12:30:21.009Z,959.04
2016-09-03T12:31:45.393Z,959.04
2016-09-03T12:32:16.955Z,959.07
2016-09-03T12:33:24.033Z,959.01
2016-09-03T12:34:28.332Z,959.00
2016-09-03T12:35:27.736Z,959.02
2016-09-03T12:36:26.867Z,959.02
2016-09-03T12:37:25.452Z,958.98
2016-09-03T12:38:19.288Z,958.97
2016-09-03T12:39:22.482Z,958.97
2016-09-03T12:40:27.615Z,958.97
2016-09-03T12:41:13.182Z,958.96
2016-09-03T12:42:22.526Z,958.92
2016-09-03T12:43:25.818Z,958.95
2016-09-03T12:44:30.661Z,958.94
2016-09-03T12:45:33.106Z,958.95